Bingen, Washington
Current Conditions -  °F | °C
As of 8:59 AM on Wednesday 26 Nov 2014 (Local Time) from K4S2 Reporting Station
Overcast Overcast  
Wind Chill: 59°   Ceiling: 5000
Heat Index: 59°   Visibility: 10mi
Dew Point: 50°   Wind: 0mph
Humidity: 72%   Direction: NA
Pressure: 30.19"   Gusts: NA
Location:  45.71°N, 121.46°W
Report Text: K4S2 261659Z AUTO 00000KT 10SM OVC050 15/10 A3019 RMK AO2 SLP240 T01500100
Loading
Personal Weather Stations






























Interactive Weather Map New forecast layout! Learn more

10-Day Weather Forecast

Advertisements
Track Severe Weather on mobile